Airfield :
LOGIN :

Register | Disclaimer

   EN    FR    IT 

 










Legend :    VFR   Marginal VFR   IFR   Intensive IFR   Very Intensive IFR
Visi :
Ceiling :
>= 8 km
>= 3000ft
5 to 8 km
1000 to 3000 ft
1500m to 5 km
500 to 1000 ft
800 to 1500m
200 to 500 ft
< 800m
< 200 ft
Symbols :   Thunderstorms  Fog  Heavy snow  Heavy precipitations  Wind > 20 kt
SIGMETs :     Misc.  Thunderstorms  Icing  Turbulence  Mountain Waves  Volcanic Ashes







- Airport Elevation : 357 ft
- IATA code : TUF
- Download approach charts


LFOT - Tours

CURRENT METAR :
  • 170000Z AUTO 02004KT 350V060 CAVOK 18/13 Q1020 NOSIG

EXPIRED METARs :
  • 162330Z AUTO 01005KT 330V040 CAVOK 18/13 Q1020 NOSIG
  • 162300Z AUTO 01004KT 320V050 CAVOK 19/13 Q1020 NOSIG
  • 162230Z AUTO 01004KT 330V060 CAVOK 19/11 Q1020 NOSIG
  • 162200Z AUTO 02005KT 340V050 CAVOK 20/09 Q1020 NOSIG
  • 162130Z AUTO 03004KT 360V080 CAVOK 20/06 Q1020 NOSIG

TAF TAF LFOT
Valid from the 17 at 00:00 until the 18 at 00:00 UTC


162300Z 1700/1724 02006KT CAVOK
BECMG 1702/1704 BKN008
BECMG 1707/1709 BKN014
BECMG 1710/1712 BKN030
BECMG 1713/1715 CAVOK
TEMPO 1714/1718 04012G22KT
No reported NOTAMs for that airfield.



MET'MAP, your aeronautical weather chart ! - Copyright ORBIFLY December 2007 - Disclaimer

ORBIFLY MET'MAP TEAM :

Programming & Development : Alexandra Zaïnal
Concept & Development : Baudouin d'Aumeries
Co-Development & Prog : Marc-Olivier Méhu
Technical & hardware support : Manuel Goepfert

Contact : metmap@orbifly.com




SOURCES & CREDITS :

   NOAA